Main page
METAR-TAF:

METAR-TAF

Airports :

Khartoum, Sudan

Khartoum International Airport

latitude: 15-36N, longitude: 032-33E, elevation: 382 m

Current weather observation

The report was made 57 minutes ago, at 15:00 UTC
Wind 7 kt from the North
Temperature 40°C
Humidity 6%
Pressure 1007 hPa
Visibility 10 km or more
no clouds below 1500 m and no cumulonimbus

METAR: HSSS 251500Z 36007KT CAVOK 40/M05 Q1007 NOSIG

Time: 18:57 (15:57 UTC)

Forecast

The report was made 4 hours and 57 minutes ago, at 11:00 UTC
Forecast valid from 25 at 12 UTC to 26 at 18 UTC
Wind 6 kt from the North/Northwest with gusts up to 16 kt
Visibility 10 km or more
no clouds below 1500 m and no cumulonimbus
Temporary
from 25 at 18 UTC to 25 at 21 UTC
Visibility: 6000 m

TAF: HSSS 251100Z 2512/2618 34006G16KT CAVOK TEMPO 2518/2521 6000

Weather observations and forecasts of more than 4000 airports (METAR and TAF reports).

The available stations are represented by yellow and red dots on the map.

Hover mouse over dot to see the name of the station.

Then click to see weather observations and forecasts.

To change the map : click on the green buttons with a black cross to zoom in, on the green button with a dash to zoom out, or on the green arrows for adjacent maps.


METAR-TAF: